Capitol Logistics 2347

Operating for ABX



KCVG
Cincinnati/Northern Kentucky International Airport
Covington, Kentucky
TJSJ
Luis Munoz Marin International Airport
San Juan,

Activity Log

Date Flight Route Aircraft Duration
No Flights Yet

Route Details

Aircraft Information
Group: Boeing Common
Types: B752,B762,B763
Route Data
Demand: V
Distance: 1575nm
Duration: 3h 45m
Recm'd Route: KENLN5 HYK LOZ SPA CAE CHS METTA MILOE OLDEY AR3 CARPX AR3 NUCAR CLETT RENAH FOSAS HELAX FIPEK PUYYA PLING RTE7 SAALR
Origin Wx: KCVG 242152Z 09010KT 10SM FEW041 SCT250 BKN300 23/15 A3011 RMK AO2 SLP189 T02280150
Dest. Wx: TJSJ 241956Z 06014KT 10SM FEW032CB SCT065 BKN080 28/23 A2997 RMK AO2 SLP148 CB S-W MOV E VCSH S-SW T02830233
Notes:

Financial History
Total Freight: 0lbs
Average Load: 0lbs/flt
Fuel Used: 0lbs
Avg. Fuel Used: 0lbs/flt
Fuel Expense: $0
Avg. Fuel Expense: $0
Avg. Fuel Cost: $0/lbs
Total Gross Income: $0
Pilot Pay: $0
Total Expenses: $0
Total Revenue: $0
Average Revenue: $0